WetterOnline ( https://www.wetteronline.de )

Wetter aktuell Bad Wimpfen

Aktuelles Wetter: Öhringen (277m)

6-stündlich | Neueste Meldungen
Ortszeit Temperatur Wetter
Do, 02.07. 20:00 21.9° C leicht bewölkt
Do, 02.07. 14:00 21.8° C bedeckt
Do, 02.07. 8:00 18.4° C Sprühregen
Do, 02.07. 2:00 21.8° C bewölkt
Mi, 01.07. 8:00 19.6° C wolkenlos
Mi, 01.07. 2:00 15.4° C wolkenlos
Di, 30.06. 20:00 21.6° C fast wolkenlos
Di, 30.06. 14:00 21.7° C bewölkt
Ortszeit Temperatur Wetter
Do, 02.07. 22:30 19.3° C wolkig
Do, 02.07. 22:20 19.3° C wolkig
Do, 02.07. 22:10 19.6° C bedeckt
Do, 02.07. 22:00 19.8° C bedeckt
Do, 02.07. 21:50 19.8° C bedeckt
Do, 02.07. 21:40 20.0° C bedeckt
Do, 02.07. 21:30 20.3° C bedeckt
Do, 02.07. 21:00 20.8° C bewölkt
Ortszeit Relative Feuchte Sichtweite
Do, 02.07. 20:00 49% 65 km
Do, 02.07. 14:00 59% >70 km
Do, 02.07. 8:00 83% 11 km
Do, 02.07. 2:00 69% 65 km
Mi, 01.07. 8:00 70% 40 km
Mi, 01.07. 2:00 82% 60 km
Di, 30.06. 20:00 53% 50 km
Di, 30.06. 14:00 49% 60 km
Ortszeit Relative Feuchte Sichtweite
Do, 02.07. 22:30 53% 60 km
Do, 02.07. 22:20 53% -
Do, 02.07. 22:10 51% -
Do, 02.07. 22:00 50% >70 km
Do, 02.07. 21:50 50% -
Do, 02.07. 21:40 50% -
Do, 02.07. 21:30 50% >70 km
Do, 02.07. 21:00 49% 55 km
Ortszeit Niederschlagsmenge Niederschlagsart
Do, 02.07. 20:00 0.1 l/m2 in 12 Std. -
Do, 02.07. 14:00 0.1 l/m2 in 6 Std. Regen
Do, 02.07. 8:00 0.1 l/m2 in 3 Std. Regen
Do, 02.07. 2:00 0.1 l/m2 in 3 Std. -
Mi, 01.07. 8:00 0.0 l/m2 in 12 Std. -
Mi, 01.07. 2:00 0.0 l/m2 in 6 Std. -
Di, 30.06. 20:00 0.0 l/m2 in 12 Std. -
Di, 30.06. 14:00 0.0 l/m2 in 6 Std. -
Ortszeit Niederschlagsmenge Niederschlagsart
Do, 02.07. 22:30 0.0 l/m2 in 1 Std. -
Do, 02.07. 22:20 keine Meldung -
Do, 02.07. 22:10 keine Meldung -
Do, 02.07. 22:00 0.0 l/m2 in 1 Std. -
Do, 02.07. 21:50 keine Meldung -
Do, 02.07. 21:40 keine Meldung -
Do, 02.07. 21:30 0.0 l/m2 in 1 Std. -
Do, 02.07. 21:00 0.0 l/m2 in 1 Std. -
Ortszeit Stärke Spitze Richtung
km/h Bft. km/h Grad Sektor
Do, 02.07. 20:00 15 3 41 260° W
Do, 02.07. 14:00 13 3 26 240° SW
Do, 02.07. 8:00 11 2 29 330° NW
Do, 02.07. 2:00 9 2 - 260° W
Mi, 01.07. 8:00 4 1 11 170° S
Mi, 01.07. 2:00 7 2 36 140° SO
Di, 30.06. 20:00 18 3 40 280° W
Di, 30.06. 14:00 19 3 41 270° W
Ortszeit Stärke Spitze Richtung
km/h Bft. km/h Grad Sektor
Do, 02.07. 22:30 13 3 19 270° W
Do, 02.07. 22:20 13 3 - 270° W
Do, 02.07. 22:10 13 3 - 260° W
Do, 02.07. 22:00 11 2 25 250° W
Do, 02.07. 21:50 11 2 - 250° W
Do, 02.07. 21:40 13 3 - 260° W
Do, 02.07. 21:30 14 3 25 260° W
Do, 02.07. 21:00 15 3 28 270° W
Ortszeit Untergrenze Bedeckung Gattung
total tief tief mittel hoch
Do, 02.07. 20:00 4500 m 5/8 1/8 - - -
Do, 02.07. 14:00 960 m 8/8 8/8 - - -
Do, 02.07. 8:00 1080 m 8/8 8/8 - - -
Do, 02.07. 2:00 1320 m 7/8 7/8 - - -
Mi, 01.07. 8:00 - 0/8 0/8 - - -
Mi, 01.07. 2:00 - 0/8 0/8 - - -
Di, 30.06. 20:00 1500 m 1/8 1/8 - - -
Di, 30.06. 14:00 1440 m 7/8 7/8 - - -
Ortszeit Bedeckungsgrad in Achtel und Wolkenuntergrenze
Do, 02.07. 22:30 3(1500m) 7(4500m) 8(6900m)
Do, 02.07. 22:20 3(1500m) 7(4500m) 8(6900m)
Do, 02.07. 22:10 8(4500m) 8(5100m) 8(5700m)
Do, 02.07. 22:00 8(4200m) 8(5100m) 8(5700m)
Do, 02.07. 21:50 8(4200m) 8(5100m) 8(5700m)
Do, 02.07. 21:40 8(4200m) 8(5700m) 8(6900m)
Do, 02.07. 21:30 6(4200m) 8(6600m) 8(8100m)
Do, 02.07. 21:00 7(6600m) 7(8100m) 7(8700m)
Ortszeit Luftdruck NN (hPa) Tendenz (hPa in 3 Std.)
Do, 02.07. 20:00 1012 + 0,3
Do, 02.07. 14:00 1013 - 0,1
Do, 02.07. 8:00 1012 + 1,0
Do, 02.07. 2:00 1010 + 1,3
Mi, 01.07. 8:00 1011 - 0,2
Mi, 01.07. 2:00 1012 - 0,3
Di, 30.06. 20:00 1012 - 0,6
Di, 30.06. 14:00 1013 - 0,8
Ortszeit Luftdruck NN (hPa) Tendenz (hPa in 3 Std.)
Do, 02.07. 22:30 1014 + 1,8
Do, 02.07. 22:20 1014 keine Meldung
Do, 02.07. 22:10 1014 keine Meldung
Do, 02.07. 22:00 1014 + 1,6
Do, 02.07. 21:50 1014 keine Meldung
Do, 02.07. 21:40 1014 keine Meldung
Do, 02.07. 21:30 1014 + 1,7
Do, 02.07. 21:00 1013 + 1,3
Ortszeit Schneehöhe (cm)
Do, 02.07. 20:00 -
Do, 02.07. 14:00 -
Do, 02.07. 8:00 -
Do, 02.07. 2:00 -
Mi, 01.07. 8:00 -
Mi, 01.07. 2:00 -
Di, 30.06. 20:00 -
Di, 30.06. 14:00 -
Ortszeit Schneehöhe (cm)
Do, 02.07. 22:30 -
Do, 02.07. 22:20 -
Do, 02.07. 22:10 -
Do, 02.07. 22:00 -
Do, 02.07. 21:50 -
Do, 02.07. 21:40 -
Do, 02.07. 21:30 -
Do, 02.07. 21:00 -
Link zu dieser Seite / Seite empfehlen

Das Wetter in ...